sensor_id;sensor_type;location;lat;lon;timestamp;pressure;altitude;pressure_sealevel;temperature;humidity
14242;BME280;7205;50.864;12.766;2024-02-15T00:00:51;97928.13;;;11.19;100.00
14242;BME280;7205;50.864;12.766;2024-02-15T00:03:18;97917.75;;;11.17;100.00
14242;BME280;7205;50.864;12.766;2024-02-15T00:05:47;97933.06;;;11.22;100.00
14242;BME280;7205;50.864;12.766;2024-02-15T00:08:13;97936.19;;;11.25;100.00
14242;BME280;7205;50.864;12.766;2024-02-15T00:10:41;97925.63;;;11.25;100.00
14242;BME280;7205;50.864;12.766;2024-02-15T00:13:08;97926.09;;;11.29;100.00
14242;BME280;7205;50.864;12.766;2024-02-15T00:15:37;97925.81;;;11.24;100.00
14242;BME280;7205;50.864;12.766;2024-02-15T00:18:04;97920.69;;;11.22;100.00
14242;BME280;7205;50.864;12.766;2024-02-15T00:20:31;97925.00;;;11.23;100.00
14242;BME280;7205;50.864;12.766;2024-02-15T00:22:59;97921.53;;;11.23;100.00
14242;BME280;7205;50.864;12.766;2024-02-15T00:25:26;97919.34;;;11.26;100.00
14242;BME280;7205;50.864;12.766;2024-02-15T00:27:52;97919.84;;;11.22;100.00
14242;BME280;7205;50.864;12.766;2024-02-15T00:30:19;97915.56;;;11.21;100.00
14242;BME280;7205;50.864;12.766;2024-02-15T00:32:49;97915.94;;;11.18;100.00
14242;BME280;7205;50.864;12.766;2024-02-15T00:35:16;97921.03;;;11.19;100.00
14242;BME280;7205;50.864;12.766;2024-02-15T00:37:44;97918.56;;;11.18;100.00
14242;BME280;7205;50.864;12.766;2024-02-15T00:40:11;97913.63;;;11.15;100.00
14242;BME280;7205;50.864;12.766;2024-02-15T00:42:38;97923.03;;;11.17;100.00
14242;BME280;7205;50.864;12.766;2024-02-15T00:45:06;97920.56;;;11.16;100.00
14242;BME280;7205;50.864;12.766;2024-02-15T00:47:34;97924.50;;;11.20;100.00
14242;BME280;7205;50.864;12.766;2024-02-15T00:50:03;97917.56;;;11.19;100.00
14242;BME280;7205;50.864;12.766;2024-02-15T00:52:30;97925.00;;;11.15;100.00
14242;BME280;7205;50.864;12.766;2024-02-15T00:54:57;97927.28;;;11.26;100.00
14242;BME280;7205;50.864;12.766;2024-02-15T00:57:24;97924.16;;;11.23;100.00
14242;BME280;7205;50.864;12.766;2024-02-15T00:59:50;97924.16;;;11.23;100.00
14242;BME280;7205;50.864;12.766;2024-02-15T01:02:18;97924.69;;;11.18;100.00
14242;BME280;7205;50.864;12.766;2024-02-15T01:04:45;97918.56;;;11.18;100.00
14242;BME280;7205;50.864;12.766;2024-02-15T01:07:13;97927.16;;;11.20;100.00
14242;BME280;7205;50.864;12.766;2024-02-15T01:09:40;97928.13;;;11.19;100.00
14242;BME280;7205;50.864;12.766;2024-02-15T01:12:07;97940.69;;;11.25;100.00
14242;BME280;7205;50.864;12.766;2024-02-15T01:14:34;97927.16;;;11.20;100.00
14242;BME280;7205;50.864;12.766;2024-02-15T01:17:01;97924.50;;;11.20;100.00
14242;BME280;7205;50.864;12.766;2024-02-15T01:19:29;97929.81;;;11.20;100.00
14242;BME280;7205;50.864;12.766;2024-02-15T01:21:56;97930.28;;;11.15;100.00
14242;BME280;7205;50.864;12.766;2024-02-15T01:24:26;97934.25;;;11.19;100.00
14242;BME280;7205;50.864;12.766;2024-02-15T01:26:53;97933.09;;;11.14;100.00
14242;BME280;7205;50.864;12.766;2024-02-15T01:29:20;97934.44;;;11.18;100.00
14242;BME280;7205;50.864;12.766;2024-02-15T01:31:47;97928.31;;;11.17;100.00
14242;BME280;7205;50.864;12.766;2024-02-15T01:34:14;97938.22;;;11.15;100.00
14242;BME280;7205;50.864;12.766;2024-02-15T01:36:42;97931.13;;;11.16;100.00
14242;BME280;7205;50.864;12.766;2024-02-15T01:39:09;97927.47;;;11.17;100.00
14242;BME280;7205;50.864;12.766;2024-02-15T01:41:38;97931.44;;;11.21;100.00
14242;BME280;7205;50.864;12.766;2024-02-15T01:44:04;97930.28;;;11.23;100.00
14242;BME280;7205;50.864;12.766;2024-02-15T01:46:40;97922.66;;;11.28;100.00
14242;BME280;7205;50.864;12.766;2024-02-15T01:49:06;97918.53;;;11.26;100.00
14242;BME280;7205;50.864;12.766;2024-02-15T01:51:34;97916.88;;;11.25;100.00
14242;BME280;7205;50.864;12.766;2024-02-15T01:54:02;97921.00;;;11.27;100.00
14242;BME280;7205;50.864;12.766;2024-02-15T01:56:30;97910.25;;;11.29;100.00
14242;BME280;7205;50.864;12.766;2024-02-15T01:58:59;97903.16;;;11.29;100.00
14242;BME280;7205;50.864;12.766;2024-02-15T02:01:27;97916.53;;;11.28;100.00
14242;BME280;7205;50.864;12.766;2024-02-15T02:03:55;97906.63;;;11.30;100.00
14242;BME280;7205;50.864;12.766;2024-02-15T02:06:22;97922.97;;;11.33;100.00
14242;BME280;7205;50.864;12.766;2024-02-15T02:08:49;97915.03;;;11.33;100.00
14242;BME280;7205;50.864;12.766;2024-02-15T02:11:16;97907.44;;;11.30;100.00
14242;BME280;7205;50.864;12.766;2024-02-15T02:13:43;97903.97;;;11.30;100.00
14242;BME280;7205;50.864;12.766;2024-02-15T02:16:26;97908.44;;;11.29;100.00
14242;BME280;7205;50.864;12.766;2024-02-15T02:18:55;97908.09;;;11.32;100.00
14242;BME280;7205;50.864;12.766;2024-02-15T02:21:22;97918.47;;;11.34;100.00
14242;BME280;7205;50.864;12.766;2024-02-15T02:23:53;97921.97;;;11.34;100.00
14242;BME280;7205;50.864;12.766;2024-02-15T02:26:23;97920.78;;;11.37;100.00
14242;BME280;7205;50.864;12.766;2024-02-15T02:28:51;97906.09;;;11.34;100.00
14242;BME280;7205;50.864;12.766;2024-02-15T02:31:19;97917.16;;;11.38;100.00
14242;BME280;7205;50.864;12.766;2024-02-15T02:33:48;97912.53;;;11.40;100.00
14242;BME280;7205;50.864;12.766;2024-02-15T02:36:17;97909.41;;;11.36;100.00
14242;BME280;7205;50.864;12.766;2024-02-15T02:38:44;97919.09;;;11.44;100.00
14242;BME280;7205;50.864;12.766;2024-02-15T02:41:12;97908.88;;;11.41;100.00
14242;BME280;7205;50.864;12.766;2024-02-15T02:43:40;97919.38;;;11.49;100.00
14242;BME280;7205;50.864;12.766;2024-02-15T02:46:10;97926.34;;;11.50;100.00
14242;BME280;7205;50.864;12.766;2024-02-15T02:48:37;97920.03;;;11.51;100.00
14242;BME280;7205;50.864;12.766;2024-02-15T02:51:05;97916.41;;;11.52;100.00
14242;BME280;7205;50.864;12.766;2024-02-15T02:53:33;97916.25;;;11.54;100.00
14242;BME280;7205;50.864;12.766;2024-02-15T02:55:59;97911.28;;;11.51;100.00
14242;BME280;7205;50.864;12.766;2024-02-15T02:58:27;97914.56;;;11.53;100.00
14242;BME280;7205;50.864;12.766;2024-02-15T03:00:56;97915.06;;;11.56;100.00
14242;BME280;7205;50.864;12.766;2024-02-15T03:03:25;97918.88;;;11.54;100.00
14242;BME280;7205;50.864;12.766;2024-02-15T03:05:52;97907.31;;;11.55;100.00
14242;BME280;7205;50.864;12.766;2024-02-15T03:08:20;97917.34;;;11.59;100.00
14242;BME280;7205;50.864;12.766;2024-02-15T03:10:48;97918.53;;;11.57;100.00
14242;BME280;7205;50.864;12.766;2024-02-15T03:13:14;97915.72;;;11.58;100.00
14242;BME280;7205;50.864;12.766;2024-02-15T03:15:44;97918.34;;;11.58;100.00
14242;BME280;7205;50.864;12.766;2024-02-15T03:18:15;97910.06;;;11.61;100.00
14242;BME280;7205;50.864;12.766;2024-02-15T03:20:41;97916.88;;;11.64;100.00
14242;BME280;7205;50.864;12.766;2024-02-15T03:23:08;97915.03;;;11.64;100.00
14242;BME280;7205;50.864;12.766;2024-02-15T03:25:36;97915.88;;;11.65;100.00
14242;BME280;7205;50.864;12.766;2024-02-15T03:28:03;97914.06;;;11.65;100.00
14242;BME280;7205;50.864;12.766;2024-02-15T03:30:31;97921.31;;;11.63;100.00
14242;BME280;7205;50.864;12.766;2024-02-15T03:32:59;97917.50;;;11.66;100.00
14242;BME280;7205;50.864;12.766;2024-02-15T03:35:27;97914.53;;;11.61;100.00
14242;BME280;7205;50.864;12.766;2024-02-15T03:37:56;97915.19;;;11.63;100.00
14242;BME280;7205;50.864;12.766;2024-02-15T03:40:23;97911.69;;;11.62;100.00
14242;BME280;7205;50.864;12.766;2024-02-15T03:42:52;97912.72;;;11.61;100.00
14242;BME280;7205;50.864;12.766;2024-02-15T03:45:19;97913.72;;;11.60;100.00
14242;BME280;7205;50.864;12.766;2024-02-15T03:47:46;97917.81;;;11.63;100.00
14242;BME280;7205;50.864;12.766;2024-02-15T03:50:15;97914.22;;;11.64;100.00
14242;BME280;7205;50.864;12.766;2024-02-15T03:52:43;97906.94;;;11.58;100.00
14242;BME280;7205;50.864;12.766;2024-02-15T03:55:10;97910.59;;;11.57;100.00
14242;BME280;7205;50.864;12.766;2024-02-15T03:57:38;97913.59;;;11.54;100.00
14242;BME280;7205;50.864;12.766;2024-02-15T04:00:07;97910.66;;;11.49;100.00
14242;BME280;7205;50.864;12.766;2024-02-15T04:02:36;97909.53;;;11.43;100.00
14242;BME280;7205;50.864;12.766;2024-02-15T04:05:06;97911.69;;;11.39;100.00
14242;BME280;7205;50.864;12.766;2024-02-15T04:07:34;97904.59;;;11.32;100.00
14242;BME280;7205;50.864;12.766;2024-02-15T04:10:05;97913.06;;;11.27;100.00
14242;BME280;7205;50.864;12.766;2024-02-15T04:12:33;97918.03;;;11.22;100.00
14242;BME280;7205;50.864;12.766;2024-02-15T04:15:02;97917.75;;;11.17;100.00
14242;BME280;7205;50.864;12.766;2024-02-15T04:17:32;97923.69;;;11.19;100.00
14242;BME280;7205;50.864;12.766;2024-02-15T04:20:00;97928.63;;;11.22;100.00
14242;BME280;7205;50.864;12.766;2024-02-15T04:22:28;97928.63;;;11.22;100.00
14242;BME280;7205;50.864;12.766;2024-02-15T04:24:57;97931.09;;;11.24;100.00
14242;BME280;7205;50.864;12.766;2024-02-15T04:27:25;97928.25;;;11.25;100.00
14242;BME280;7205;50.864;12.766;2024-02-15T04:29:52;97924.34;;;11.21;100.00
14242;BME280;7205;50.864;12.766;2024-02-15T04:32:21;97937.16;;;11.32;100.00
14242;BME280;7205;50.864;12.766;2024-02-15T04:34:47;97928.75;;;11.29;100.00
14242;BME280;7205;50.864;12.766;2024-02-15T04:37:14;97934.03;;;11.29;100.00
14242;BME280;7205;50.864;12.766;2024-02-15T04:39:42;97926.09;;;11.29;100.00
14242;BME280;7205;50.864;12.766;2024-02-15T04:42:09;97933.69;;;11.32;100.00
14242;BME280;7205;50.864;12.766;2024-02-15T04:44:39;97930.06;;;11.33;100.00
14242;BME280;7205;50.864;12.766;2024-02-15T04:47:06;97944.56;;;11.37;100.00
14242;BME280;7205;50.864;12.766;2024-02-15T04:49:34;97937.28;;;11.39;100.00
14242;BME280;7205;50.864;12.766;2024-02-15T04:52:04;97947.69;;;11.40;100.00
14242;BME280;7205;50.864;12.766;2024-02-15T04:54:32;97937.78;;;11.43;100.00
14242;BME280;7205;50.864;12.766;2024-02-15T04:56:59;97935.97;;;11.43;100.00
14242;BME280;7205;50.864;12.766;2024-02-15T04:59:26;97944.72;;;11.44;100.00
14242;BME280;7205;50.864;12.766;2024-02-15T05:01:56;97943.59;;;11.38;100.00
14242;BME280;7205;50.864;12.766;2024-02-15T05:04:23;97940.47;;;11.34;100.00
14242;BME280;7205;50.864;12.766;2024-02-15T05:06:50;97945.56;;;11.36;100.00
14242;BME280;7205;50.864;12.766;2024-02-15T05:09:18;97947.88;;;11.39;100.00
14242;BME280;7205;50.864;12.766;2024-02-15T05:11:45;97939.44;;;11.35;100.00
14242;BME280;7205;50.864;12.766;2024-02-15T05:14:14;97946.06;;;11.39;100.00
14242;BME280;7205;50.864;12.766;2024-02-15T05:16:45;97951.16;;;11.41;100.00
14242;BME280;7205;50.864;12.766;2024-02-15T05:19:15;97956.28;;;11.43;100.00
14242;BME280;7205;50.864;12.766;2024-02-15T05:21:43;97941.06;;;11.45;100.00
14242;BME280;7205;50.864;12.766;2024-02-15T05:24:12;97953.28;;;11.46;100.00
14242;BME280;7205;50.864;12.766;2024-02-15T05:26:40;97950.00;;;11.44;100.00
14242;BME280;7205;50.864;12.766;2024-02-15T05:29:08;97947.19;;;11.45;100.00
14242;BME280;7205;50.864;12.766;2024-02-15T05:31:36;97963.38;;;11.50;100.00
14242;BME280;7205;50.864;12.766;2024-02-15T05:34:04;97947.69;;;11.40;100.00
14242;BME280;7205;50.864;12.766;2024-02-15T05:36:34;97935.31;;;11.41;100.00
14242;BME280;7205;50.864;12.766;2024-02-15T05:39:01;97948.66;;;11.48;100.00
14242;BME280;7205;50.864;12.766;2024-02-15T05:41:30;97945.03;;;11.49;100.00
14242;BME280;7205;50.864;12.766;2024-02-15T05:43:58;97935.44;;;11.48;100.00
14242;BME280;7205;50.864;12.766;2024-02-15T05:46:25;97948.47;;;11.49;100.00
14242;BME280;7205;50.864;12.766;2024-02-15T05:48:53;97949.50;;;11.48;100.00
14242;BME280;7205;50.864;12.766;2024-02-15T05:51:22;97948.47;;;11.49;100.00
14242;BME280;7205;50.864;12.766;2024-02-15T05:53:50;97951.31;;;11.48;100.00
14242;BME280;7205;50.864;12.766;2024-02-15T05:56:19;97957.91;;;11.52;100.00
14242;BME280;7205;50.864;12.766;2024-02-15T05:58:46;97952.13;;;11.48;100.00
14242;BME280;7205;50.864;12.766;2024-02-15T06:01:13;97955.09;;;11.53;100.00
14242;BME280;7205;50.864;12.766;2024-02-15T06:03:40;97961.66;;;11.57;100.00
14242;BME280;7205;50.864;12.766;2024-02-15T06:06:09;97959.31;;;11.62;100.00
14242;BME280;7205;50.864;12.766;2024-02-15T06:08:37;97962.13;;;11.61;100.00
14242;BME280;7205;50.864;12.766;2024-02-15T06:11:06;97950.75;;;11.60;100.00
14242;BME280;7205;50.864;12.766;2024-02-15T06:13:35;97962.16;;;11.69;100.00
14242;BME280;7205;50.864;12.766;2024-02-15T06:16:02;97962.78;;;11.71;100.00
14242;BME280;7205;50.864;12.766;2024-02-15T06:18:34;97974.00;;;11.73;100.00
14242;BME280;7205;50.864;12.766;2024-02-15T06:21:03;97976.00;;;11.71;100.00
14242;BME280;7205;50.864;12.766;2024-02-15T06:23:31;97959.66;;;11.67;100.00
14242;BME280;7205;50.864;12.766;2024-02-15T06:25:59;97968.72;;;11.73;100.00
14242;BME280;7205;50.864;12.766;2024-02-15T06:28:28;97958.84;;;11.67;100.00
